Time;durP1;ratioP1;P1;durP2;ratioP2;P2;SDS_P1;SDS_P2;PMS_P1;PMS_P2;Temp;Humidity;BMP_temperature;BMP_pressure;BME280_temperature;BME280_humidity;BME280_pressure;Samples;Min_cycle;Max_cycle;Signal;HPM_P1;HPM_P2
2023/09/14 00:00:20;;;;;;;2.63;2.13;;;;;;;;;;5083858;28;20355;-79
2023/09/14 00:02:45;;;;;;;4.40;3.20;;;;;;;;;;5087518;28;20070;-79
2023/09/14 00:05:11;;;;;;;5.57;3.10;;;;;;;;;;5085727;28;20055;-79
2023/09/14 00:07:37;;;;;;;3.33;2.90;;;;;;;;;;5101152;28;20110;-79
2023/09/14 00:10:02;;;;;;;4.18;3.03;;;;;;;;;;5081238;28;20592;-80
2023/09/14 00:12:28;;;;;;;3.67;2.72;;;;;;;;;;5092056;28;20012;-79
2023/09/14 00:14:53;;;;;;;4.65;3.13;;;;;;;;;;5084522;28;20612;-80
2023/09/14 00:17:18;;;;;;;4.97;3.25;;;;;;;;;;5083963;28;20026;-79
2023/09/14 00:19:44;;;;;;;4.53;3.10;;;;;;;;;;5079439;28;20046;-79
2023/09/14 00:22:09;;;;;;;4.53;3.03;;;;;;;;;;5082882;28;20020;-79
2023/09/14 00:24:36;;;;;;;4.22;3.03;;;;;;;;;;5101216;28;20024;-79
2023/09/14 00:27:03;;;;;;;4.20;2.88;;;;;;;;;;5101136;28;20064;-79
2023/09/14 00:29:28;;;;;;;3.70;2.90;;;;;;;;;;5102313;28;20016;-79
2023/09/14 00:31:54;;;;;;;4.30;2.83;;;;;;;;;;5103200;28;20482;-79
2023/09/14 00:34:19;;;;;;;4.20;3.25;;;;;;;;;;5087070;28;20016;-79
2023/09/14 00:36:44;;;;;;;3.20;2.50;;;;;;;;;;5102218;28;20027;-80
2023/09/14 00:39:10;;;;;;;3.13;2.72;;;;;;;;;;5094735;28;20024;-79
2023/09/14 00:41:35;;;;;;;5.43;3.10;;;;;;;;;;5078331;28;20083;-79
2023/09/14 00:44:01;;;;;;;4.07;2.83;;;;;;;;;;5075658;28;20061;-79
2023/09/14 00:46:27;;;;;;;5.10;2.90;;;;;;;;;;5099791;28;20087;-80
2023/09/14 00:48:53;;;;;;;4.70;3.30;;;;;;;;;;5101232;28;20074;-79
2023/09/14 00:51:19;;;;;;;5.68;3.00;;;;;;;;;;5078354;28;20035;-79
2023/09/14 00:53:44;;;;;;;3.70;3.17;;;;;;;;;;5070069;28;20042;-79
2023/09/14 00:56:11;;;;;;;3.92;3.28;;;;;;;;;;5098323;28;20031;-79
2023/09/14 00:58:37;;;;;;;6.95;3.15;;;;;;;;;;5100524;28;20024;-80
2023/09/14 01:01:03;;;;;;;3.72;2.92;;;;;;;;;;5100991;28;20495;-79
2023/09/14 01:03:30;;;;;;;3.83;3.05;;;;;;;;;;5074442;28;20626;-79
2023/09/14 01:05:55;;;;;;;4.00;3.45;;;;;;;;;;5099235;28;20127;-79
2023/09/14 01:08:20;;;;;;;4.80;3.42;;;;;;;;;;5082697;28;20040;-79
2023/09/14 01:10:46;;;;;;;4.95;3.70;;;;;;;;;;5094279;28;20016;-79
2023/09/14 01:13:29;;;;;;;4.97;3.20;;;;;;;;;;5090893;28;20024;-79
2023/09/14 01:16:10;;;;;;;6.30;2.95;;;;;;;;;;5080822;28;20029;-79
2023/09/14 01:18:45;;;;;;;5.38;3.30;;;;;;;;;;5101438;28;20049;-79
2023/09/14 01:21:48;;;;;;;6.57;3.47;;;;;;;;;;5100794;28;20020;-79
2023/09/14 01:24:40;;;;;;;4.18;3.20;;;;;;;;;;5082665;28;20076;-79
2023/09/14 01:27:07;;;;;;;8.90;4.13;;;;;;;;;;5098156;28;20049;-79
2023/09/14 01:29:33;;;;;;;6.35;3.72;;;;;;;;;;5081000;28;20489;-80
2023/09/14 01:31:58;;;;;;;4.70;3.47;;;;;;;;;;5079986;28;20020;-79
2023/09/14 01:34:23;;;;;;;6.75;3.85;;;;;;;;;;5082674;28;20051;-79
2023/09/14 01:36:55;;;;;;;4.18;2.78;;;;;;;;;;5100253;28;20088;-79
2023/09/14 01:39:21;;;;;;;4.97;3.38;;;;;;;;;;5082592;28;20023;-79
2023/09/14 01:41:47;;;;;;;5.60;3.30;;;;;;;;;;5090318;28;20031;-79
2023/09/14 01:44:13;;;;;;;4.47;2.95;;;;;;;;;;5083166;28;20024;-79
2023/09/14 01:46:39;;;;;;;5.00;3.20;;;;;;;;;;5100120;28;20055;-79
2023/09/14 01:49:05;;;;;;;6.85;3.33;;;;;;;;;;5098914;28;20385;-79
2023/09/14 01:51:30;;;;;;;4.75;3.42;;;;;;;;;;5082570;28;20043;-79
2023/09/14 01:53:55;;;;;;;5.07;3.80;;;;;;;;;;5099096;28;20091;-79
2023/09/14 01:56:21;;;;;;;5.13;3.58;;;;;;;;;;5100032;28;20016;-79
2023/09/14 01:58:46;;;;;;;4.10;3.10;;;;;;;;;;5100351;28;20141;-79
2023/09/14 02:01:11;;;;;;;6.03;3.42;;;;;;;;;;5097553;28;20074;-79
2023/09/14 02:03:37;;;;;;;5.70;3.65;;;;;;;;;;5081648;28;20024;-79
2023/09/14 02:06:02;;;;;;;4.10;2.97;;;;;;;;;;5091873;28;20039;-79
2023/09/14 02:08:31;;;;;;;4.40;3.03;;;;;;;;;;5072383;28;20042;-79
2023/09/14 02:10:56;;;;;;;5.78;3.45;;;;;;;;;;5093754;28;20509;-79
2023/09/14 02:13:22;;;;;;;5.13;3.28;;;;;;;;;;5077044;28;20067;-79
2023/09/14 02:15:47;;;;;;;5.60;3.40;;;;;;;;;;5059745;28;20028;-79
2023/09/14 02:18:12;;;;;;;6.50;3.40;;;;;;;;;;5097417;28;20032;-79
2023/09/14 02:20:40;;;;;;;4.28;3.10;;;;;;;;;;5080605;28;20104;-79
2023/09/14 02:23:08;;;;;;;3.25;2.80;;;;;;;;;;5079251;28;20028;-79
2023/09/14 02:25:33;;;;;;;3.35;2.85;;;;;;;;;;5082033;28;20031;-79
2023/09/14 02:27:59;;;;;;;4.57;2.95;;;;;;;;;;5073755;28;20119;-79
2023/09/14 02:30:26;;;;;;;5.13;2.88;;;;;;;;;;5095640;28;20035;-79
2023/09/14 02:32:51;;;;;;;3.70;2.92;;;;;;;;;;5081936;28;20040;-79
2023/09/14 02:35:17;;;;;;;4.28;3.13;;;;;;;;;;5078581;28;20069;-79
2023/09/14 02:37:42;;;;;;;3.58;2.72;;;;;;;;;;5079221;28;20031;-79
2023/09/14 02:40:08;;;;;;;3.83;2.70;;;;;;;;;;5062363;28;20383;-79
2023/09/14 02:42:37;;;;;;;4.78;3.05;;;;;;;;;;5077595;28;20020;-80
2023/09/14 02:45:04;;;;;;;3.72;2.83;;;;;;;;;;5094737;28;20020;-79
2023/09/14 02:47:29;;;;;;;3.05;2.75;;;;;;;;;;5095841;28;20571;-79
2023/09/14 02:49:54;;;;;;;4.18;3.10;;;;;;;;;;5078131;28;20502;-82
2023/09/14 02:52:19;;;;;;;4.15;3.08;;;;;;;;;;5087484;28;20074;-79
2023/09/14 02:54:45;;;;;;;4.15;3.38;;;;;;;;;;5079009;28;20024;-79
2023/09/14 02:57:10;;;;;;;4.80;3.22;;;;;;;;;;5079143;28;20051;-79
2023/09/14 02:59:35;;;;;;;3.67;2.83;;;;;;;;;;5091459;28;20024;-79
2023/09/14 03:02:01;;;;;;;5.20;2.95;;;;;;;;;;5092706;28;20119;-79
2023/09/14 03:04:26;;;;;;;3.63;2.70;;;;;;;;;;5075733;28;20046;-79
2023/09/14 03:06:52;;;;;;;3.33;2.92;;;;;;;;;;5077579;28;20020;-81
2023/09/14 03:09:17;;;;;;;3.25;2.70;;;;;;;;;;5083959;28;20020;-79
2023/09/14 03:11:43;;;;;;;5.55;2.80;;;;;;;;;;5083031;28;20030;-80
2023/09/14 03:14:08;;;;;;;2.80;2.40;;;;;;;;;;5101173;28;20050;-79
2023/09/14 03:16:33;;;;;;;3.25;2.70;;;;;;;;;;5083097;28;20031;-80
2023/09/14 03:18:59;;;;;;;4.82;2.58;;;;;;;;;;5080904;28;20027;-79
2023/09/14 03:21:28;;;;;;;3.97;2.85;;;;;;;;;;5101907;28;20482;-79
2023/09/14 03:23:53;;;;;;;3.47;2.55;;;;;;;;;;5101615;28;20505;-79
2023/09/14 03:26:19;;;;;;;3.45;2.67;;;;;;;;;;5101823;28;20095;-80
2023/09/14 03:28:48;;;;;;;4.15;2.92;;;;;;;;;;5101558;28;20020;-80
2023/09/14 03:31:13;;;;;;;2.90;2.60;;;;;;;;;;5102191;28;20039;-80
2023/09/14 03:33:38;;;;;;;3.72;2.38;;;;;;;;;;5084033;28;20024;-79
2023/09/14 03:36:04;;;;;;;3.20;2.35;;;;;;;;;;5084202;28;20024;-79
2023/09/14 03:38:29;;;;;;;5.20;2.92;;;;;;;;;;5100900;28;20438;-80
2023/09/14 03:40:55;;;;;;;4.10;3.25;;;;;;;;;;5101819;28;20020;-79
2023/09/14 03:43:20;;;;;;;3.78;2.83;;;;;;;;;;5074709;28;20381;-79
2023/09/14 03:45:45;;;;;;;4.07;2.90;;;;;;;;;;5100366;28;20047;-80
2023/09/14 03:48:11;;;;;;;4.82;2.70;;;;;;;;;;5082628;28;20023;-80
2023/09/14 03:50:36;;;;;;;4.50;3.03;;;;;;;;;;5082413;28;20020;-80
2023/09/14 03:53:02;;;;;;;2.92;2.47;;;;;;;;;;5069024;28;20035;-79
2023/09/14 03:55:29;;;;;;;3.90;3.08;;;;;;;;;;5100926;28;20020;-80
2023/09/14 03:57:54;;;;;;;4.10;2.70;;;;;;;;;;5107122;28;20453;-79
2023/09/14 04:00:20;;;;;;;6.22;3.33;;;;;;;;;;5098957;28;20016;-80
2023/09/14 04:02:45;;;;;;;5.53;3.25;;;;;;;;;;5100180;28;20420;-80
2023/09/14 04:05:14;;;;;;;5.95;3.22;;;;;;;;;;5065343;28;20028;-82
2023/09/14 04:07:40;;;;;;;4.55;3.65;;;;;;;;;;5082163;28;20020;-80
2023/09/14 04:10:09;;;;;;;4.03;3.17;;;;;;;;;;5079348;28;20024;-80
2023/09/14 04:12:36;;;;;;;7.75;3.00;;;;;;;;;;5081962;28;20040;-79
2023/09/14 04:15:01;;;;;;;4.65;3.42;;;;;;;;;;5099104;28;20024;-79
2023/09/14 04:17:28;;;;;;;4.35;2.72;;;;;;;;;;5095964;28;20055;-79
2023/09/14 04:19:53;;;;;;;5.95;3.67;;;;;;;;;;5098820;28;20024;-79
2023/09/14 04:22:18;;;;;;;4.70;3.40;;;;;;;;;;5066975;28;20054;-79
2023/09/14 04:24:44;;;;;;;3.80;3.00;;;;;;;;;;5107079;28;20024;-79
2023/09/14 04:27:10;;;;;;;4.80;3.58;;;;;;;;;;5082161;28;20089;-79
2023/09/14 04:29:35;;;;;;;3.30;2.53;;;;;;;;;;5087342;28;20050;-79
2023/09/14 04:32:00;;;;;;;4.40;3.15;;;;;;;;;;5080450;28;20020;-79
2023/09/14 04:34:26;;;;;;;4.97;3.17;;;;;;;;;;5098685;28;20024;-79
2023/09/14 04:36:52;;;;;;;4.10;2.75;;;;;;;;;;5072617;28;20032;-79
2023/09/14 04:39:17;;;;;;;5.72;2.83;;;;;;;;;;5099545;28;20428;-79
2023/09/14 04:41:42;;;;;;;5.38;3.40;;;;;;;;;;5072688;28;20510;-82
2023/09/14 04:44:08;;;;;;;6.63;3.17;;;;;;;;;;5096021;28;20543;-79
2023/09/14 04:46:36;;;;;;;4.97;2.85;;;;;;;;;;5097794;28;20526;-80
2023/09/14 04:49:01;;;;;;;5.93;3.83;;;;;;;;;;5097522;28;20089;-79
2023/09/14 04:51:27;;;;;;;6.05;3.53;;;;;;;;;;5079957;28;20016;-81
2023/09/14 04:53:52;;;;;;;5.80;3.17;;;;;;;;;;5094024;28;20489;-80
2023/09/14 04:56:19;;;;;;;8.02;3.28;;;;;;;;;;5095631;28;20019;-80
2023/09/14 04:58:44;;;;;;;6.10;3.58;;;;;;;;;;5084695;28;20031;-80
2023/09/14 05:01:10;;;;;;;5.25;3.67;;;;;;;;;;5098172;28;20044;-81
2023/09/14 05:03:35;;;;;;;6.57;4.35;;;;;;;;;;5078306;28;20030;-80
2023/09/14 05:06:04;;;;;;;7.10;3.90;;;;;;;;;;5078198;28;20458;-83
2023/09/14 05:08:29;;;;;;;6.85;4.05;;;;;;;;;;5079790;28;20024;-80
2023/09/14 05:10:54;;;;;;;6.28;3.88;;;;;;;;;;5079188;28;20047;-80
2023/09/14 05:13:23;;;;;;;7.53;4.22;;;;;;;;;;5096609;28;20646;-81
2023/09/14 05:15:48;;;;;;;6.53;3.88;;;;;;;;;;5096752;28;20031;-80
2023/09/14 05:18:13;;;;;;;4.75;3.95;;;;;;;;;;5096030;28;20104;-82
2023/09/14 05:20:48;;;;;;;5.25;4.05;;;;;;;;;;5079588;28;20020;-82
2023/09/14 05:23:14;;;;;;;10.13;4.97;;;;;;;;;;5069137;28;20024;-83
2023/09/14 05:25:40;;;;;;;6.15;4.22;;;;;;;;;;5075594;28;20022;-81
2023/09/14 05:28:07;;;;;;;7.40;4.40;;;;;;;;;;5090486;28;20490;-81
2023/09/14 05:30:32;;;;;;;8.50;4.63;;;;;;;;;;5095092;28;20036;-82
2023/09/14 05:32:58;;;;;;;8.70;5.13;;;;;;;;;;5090332;28;20031;-82
2023/09/14 05:36:13;;;;;;;7.32;4.60;;;;;;;;;;5094821;28;20028;-82
2023/09/14 05:38:39;;;;;;;6.97;4.72;;;;;;;;;;5082112;28;20020;-82
2023/09/14 05:41:07;;;;;;;8.07;4.35;;;;;;;;;;5090709;22;20060;-88
2023/09/14 05:43:32;;;;;;;6.22;4.38;;;;;;;;;;5052978;28;20079;-89
2023/09/14 05:45:59;;;;;;;7.35;4.95;;;;;;;;;;5063179;28;20068;-88
2023/09/14 05:48:25;;;;;;;8.55;5.28;;;;;;;;;;5064569;28;20115;-88
2023/09/14 05:50:50;;;;;;;7.60;4.38;;;;;;;;;;5039314;28;20059;-89
2023/09/14 05:53:17;;;;;;;8.40;4.93;;;;;;;;;;5061040;28;20028;-88
2023/09/14 05:55:42;;;;;;;9.60;5.03;;;;;;;;;;5045909;28;20063;-88
2023/09/14 05:58:07;;;;;;;6.70;5.00;;;;;;;;;;5057169;28;20028;-88
2023/09/14 06:00:56;;;;;;;4.75;3.95;;;;;;;;;;5047375;28;20075;-89
2023/09/14 06:13:21;;;;;;;6.65;3.85;;;;;;;;;;5061252;28;20041;-88
2023/09/14 06:19:07;;;;;;;3.83;2.25;;;;;;;;;;5067806;28;20477;-87
2023/09/14 06:22:08;;;;;;;2.58;2.22;;;;;;;;;;5048985;28;20128;-88
2023/09/14 06:24:47;;;;;;;4.30;2.30;;;;;;;;;;5052661;28;20079;-87
2023/09/14 06:27:13;;;;;;;5.10;2.03;;;;;;;;;;5052848;28;20032;-87
2023/09/14 06:29:43;;;;;;;5.28;2.55;;;;;;;;;;5047034;28;20403;-88
2023/09/14 06:32:09;;;;;;;2.92;2.20;;;;;;;;;;5045838;28;20021;-87
2023/09/14 06:34:35;;;;;;;3.15;2.50;;;;;;;;;;5065961;28;20043;-87
2023/09/14 06:37:04;;;;;;;2.55;2.15;;;;;;;;;;5049305;28;20052;-87
2023/09/14 06:39:48;;;;;;;2.58;2.20;;;;;;;;;;5037517;28;20044;-87
2023/09/14 06:43:00;;;;;;;3.30;2.50;;;;;;;;;;5064762;28;20086;-87
2023/09/14 06:45:22;;;;;;;4.80;2.10;;;;;;;;;;5057084;28;20399;-86
2023/09/14 06:47:48;;;;;;;4.43;2.15;;;;;;;;;;5055580;28;20020;-87
2023/09/14 06:50:14;;;;;;;2.22;1.90;;;;;;;;;;5060503;28;20377;-88
2023/09/14 06:52:40;;;;;;;2.92;1.80;;;;;;;;;;5044394;28;20040;-88
2023/09/14 06:55:06;;;;;;;3.83;1.90;;;;;;;;;;5067514;28;20028;-88
2023/09/14 06:57:32;;;;;;;3.00;2.00;;;;;;;;;;5082110;28;20025;-88
2023/09/14 06:59:58;;;;;;;1.83;1.67;;;;;;;;;;5071716;28;20393;-87
2023/09/14 07:02:23;;;;;;;1.90;1.80;;;;;;;;;;5053424;28;20031;-87
2023/09/14 07:04:48;;;;;;;2.60;1.88;;;;;;;;;;5063983;28;20024;-87
2023/09/14 07:07:14;;;;;;;4.55;2.20;;;;;;;;;;5053696;28;20400;-88
2023/09/14 07:09:39;;;;;;;4.05;2.00;;;;;;;;;;5063490;28;20449;-87
2023/09/14 07:12:06;;;;;;;3.58;2.20;;;;;;;;;;5066618;28;20021;-88
2023/09/14 07:14:32;;;;;;;5.18;2.08;;;;;;;;;;5039002;28;20025;-87
2023/09/14 07:16:57;;;;;;;4.25;2.20;;;;;;;;;;5062544;28;20440;-89
2023/09/14 07:19:26;;;;;;;3.83;2.20;;;;;;;;;;5053994;28;20435;-87
2023/09/14 07:21:54;;;;;;;5.20;2.20;;;;;;;;;;5063880;28;20020;-88
2023/09/14 07:24:20;;;;;;;4.10;2.53;;;;;;;;;;5053729;28;20025;-88
2023/09/14 07:26:45;;;;;;;4.38;2.33;;;;;;;;;;5037749;28;20028;-88
2023/09/14 07:29:11;;;;;;;2.95;2.50;;;;;;;;;;5062405;28;20028;-88
2023/09/14 07:31:36;;;;;;;2.53;2.20;;;;;;;;;;5055126;28;20378;-88
2023/09/14 07:34:02;;;;;;;2.83;2.28;;;;;;;;;;5064495;28;20035;-89
2023/09/14 07:36:28;;;;;;;2.63;2.22;;;;;;;;;;5073114;28;20032;-88
2023/09/14 07:38:53;;;;;;;3.45;2.35;;;;;;;;;;5074057;28;20177;-89
2023/09/14 07:41:19;;;;;;;5.35;2.40;;;;;;;;;;5060186;28;20036;-88
2023/09/14 07:43:44;;;;;;;4.75;2.72;;;;;;;;;;5050376;28;20028;-88
2023/09/14 07:46:10;;;;;;;3.67;2.45;;;;;;;;;;5056428;28;20033;-89
2023/09/14 07:48:36;;;;;;;2.58;2.38;;;;;;;;;;5041592;28;20024;-87
2023/09/14 07:51:01;;;;;;;3.90;2.33;;;;;;;;;;5073682;28;20025;-89
2023/09/14 07:53:27;;;;;;;4.03;2.05;;;;;;;;;;5072561;28;20115;-88
2023/09/14 07:55:53;;;;;;;3.10;2.15;;;;;;;;;;5068044;28;20021;-88
2023/09/14 07:58:22;;;;;;;3.70;2.13;;;;;;;;;;5045541;28;20025;-88
2023/09/14 08:00:51;;;;;;;2.42;1.83;;;;;;;;;;5074702;28;20056;-88
2023/09/14 08:03:16;;;;;;;2.22;2.03;;;;;;;;;;5047997;28;20029;-88
2023/09/14 08:05:42;;;;;;;4.43;2.35;;;;;;;;;;5057329;28;20021;-88
2023/09/14 08:08:12;;;;;;;4.85;2.20;;;;;;;;;;5069924;28;20056;-88
2023/09/14 08:10:39;;;;;;;3.78;2.60;;;;;;;;;;5037539;28;20535;-89
2023/09/14 08:13:06;;;;;;;3.25;2.17;;;;;;;;;;5051206;28;20044;-89
2023/09/14 08:15:31;;;;;;;2.47;2.28;;;;;;;;;;5065460;28;20427;-88
2023/09/14 08:17:57;;;;;;;2.42;1.92;;;;;;;;;;5056916;28;20033;-88
2023/09/14 08:20:22;;;;;;;2.47;2.15;;;;;;;;;;5037915;28;20017;-88
2023/09/14 08:22:48;;;;;;;3.17;1.92;;;;;;;;;;5057913;28;20025;-88
2023/09/14 08:25:15;;;;;;;4.05;2.40;;;;;;;;;;5039883;28;20029;-88
2023/09/14 08:27:41;;;;;;;2.42;1.85;;;;;;;;;;5043976;28;20035;-88
2023/09/14 08:30:09;;;;;;;3.67;2.20;;;;;;;;;;5054661;28;20033;-88
2023/09/14 08:32:34;;;;;;;3.58;2.20;;;;;;;;;;5061152;28;20036;-88
2023/09/14 08:35:19;;;;;;;3.72;2.40;;;;;;;;;;5048918;28;20114;-87
2023/09/14 08:37:45;;;;;;;2.72;2.13;;;;;;;;;;5066988;28;20032;-88
2023/09/14 08:40:13;;;;;;;2.40;2.20;;;;;;;;;;5083372;28;20021;-88
2023/09/14 08:42:41;;;;;;;5.53;2.50;;;;;;;;;;5056016;28;20104;-88
2023/09/14 08:45:10;;;;;;;3.63;2.42;;;;;;;;;;5055783;28;20036;-88
2023/09/14 08:47:39;;;;;;;4.78;2.85;;;;;;;;;;5069582;28;20478;-88
2023/09/14 08:50:05;;;;;;;4.30;2.42;;;;;;;;;;5050059;28;20115;-88
2023/09/14 08:52:32;;;;;;;3.80;2.38;;;;;;;;;;5054642;28;20120;-88
2023/09/14 08:54:58;;;;;;;3.83;2.60;;;;;;;;;;5055227;28;20028;-88
2023/09/14 08:57:25;;;;;;;3.63;2.60;;;;;;;;;;5061975;28;20381;-88
2023/09/14 08:59:51;;;;;;;3.38;2.55;;;;;;;;;;5048036;28;20034;-88
2023/09/14 09:02:18;;;;;;;4.15;2.88;;;;;;;;;;5054226;28;20081;-88
2023/09/14 09:04:44;;;;;;;3.08;2.55;;;;;;;;;;5049010;28;20021;-88
2023/09/14 09:07:09;;;;;;;6.00;2.72;;;;;;;;;;5055844;28;20028;-88
2023/09/14 09:09:36;;;;;;;4.63;2.63;;;;;;;;;;5072430;28;20024;-88
2023/09/14 09:12:01;;;;;;;2.88;2.30;;;;;;;;;;5063710;28;20024;-88
2023/09/14 09:14:30;;;;;;;4.05;2.55;;;;;;;;;;5054857;28;20035;-88
2023/09/14 09:16:55;;;;;;;3.22;2.35;;;;;;;;;;5070094;28;20025;-88
2023/09/14 09:19:21;;;;;;;6.28;2.92;;;;;;;;;;5038446;28;20033;-88
2023/09/14 09:21:46;;;;;;;2.92;2.17;;;;;;;;;;5059989;28;20043;-88
2023/09/14 09:24:24;;;;;;;3.33;2.20;;;;;;;;;;5050292;28;20374;-88
2023/09/14 09:26:50;;;;;;;4.35;2.50;;;;;;;;;;5061964;28;20025;-88
2023/09/14 09:29:19;;;;;;;2.90;2.25;;;;;;;;;;5054910;28;20024;-88
2023/09/14 09:31:46;;;;;;;5.32;2.60;;;;;;;;;;5046907;28;20021;-87
2023/09/14 09:34:12;;;;;;;3.55;2.63;;;;;;;;;;5056030;28;20024;-88
2023/09/14 09:36:38;;;;;;;3.47;2.50;;;;;;;;;;5054677;28;20043;-88
2023/09/14 09:39:07;;;;;;;4.43;2.80;;;;;;;;;;5073161;28;20382;-88
2023/09/14 09:41:35;;;;;;;4.25;2.55;;;;;;;;;;5046444;28;20052;-88
2023/09/14 09:44:06;;;;;;;4.30;2.70;;;;;;;;;;5060760;28;20032;-88
2023/09/14 09:46:34;;;;;;;4.63;2.90;;;;;;;;;;5060965;28;20098;-88
2023/09/14 09:49:01;;;;;;;7.50;2.90;;;;;;;;;;5048689;28;20059;-88
2023/09/14 09:51:26;;;;;;;4.43;2.38;;;;;;;;;;5045901;28;20036;-88
2023/09/14 09:54:11;;;;;;;4.70;2.28;;;;;;;;;;5069457;28;20028;-87
2023/09/14 09:56:38;;;;;;;5.35;2.80;;;;;;;;;;5055420;28;20031;-88
2023/09/14 09:59:10;;;;;;;4.03;2.33;;;;;;;;;;5048903;28;20105;-88
2023/09/14 10:01:40;;;;;;;3.97;2.55;;;;;;;;;;5072620;28;20020;-89
2023/09/14 10:07:37;;;;;;;4.03;2.25;;;;;;;;;;5030445;28;20073;-88
2023/09/14 10:14:44;;;;;;;2.15;1.95;;;;;;;;;;4972665;28;20050;-88
2023/09/14 10:20:40;;;;;;;3.28;2.50;;;;;;;;;;5021536;28;20406;-88
2023/09/14 10:23:07;;;;;;;3.92;2.33;;;;;;;;;;5008689;28;20026;-88
2023/09/14 10:25:33;;;;;;;4.38;2.85;;;;;;;;;;5048886;28;20375;-88
2023/09/14 10:28:00;;;;;;;5.30;2.20;;;;;;;;;;5035320;28;20021;-88
2023/09/14 10:30:26;;;;;;;2.80;2.22;;;;;;;;;;5036527;28;20474;-89
2023/09/14 10:32:53;;;;;;;2.75;2.22;;;;;;;;;;5056031;28;20100;-88
2023/09/14 10:39:27;;;;;;;;;;;;;;;;;;;;;
2023/09/14 10:45:16;;;;;;;3.78;2.42;;;;;;;;;;5037258;28;20043;-88
2023/09/14 10:52:29;;;;;;;3.05;2.30;;;;;;;;;;5061718;28;20139;-87
2023/09/14 10:55:42;;;;;;;5.45;2.47;;;;;;;;;;5044076;28;20134;-89
2023/09/14 10:59:05;;;;;;;5.25;2.40;;;;;;;;;;5031953;28;20036;-89
2023/09/14 11:05:39;;;;;;;3.22;2.13;;;;;;;;;;4957364;28;20481;-89
2023/09/14 11:11:48;;;;;;;5.60;2.40;;;;;;;;;;5063495;22;20524;-88
2023/09/14 11:14:14;;;;;;;3.83;1.80;;;;;;;;;;5047480;28;20044;-88
2023/09/14 11:16:53;;;;;;;2.22;1.80;;;;;;;;;;5068212;28;20115;-85
2023/09/14 11:19:31;;;;;;;1.92;1.80;;;;;;;;;;5068545;28;20032;-86
2023/09/14 11:22:04;;;;;;;3.42;2.28;;;;;;;;;;5055244;28;20020;-86
2023/09/14 11:24:34;;;;;;;2.60;2.03;;;;;;;;;;5085749;28;20008;-86
2023/09/14 11:27:00;;;;;;;5.35;3.10;;;;;;;;;;5062963;28;20038;-86
2023/09/14 11:29:28;;;;;;;4.05;2.03;;;;;;;;;;5056966;28;20032;-86
2023/09/14 11:32:07;;;;;;;4.90;2.47;;;;;;;;;;5058032;28;20503;-86
2023/09/14 11:34:36;;;;;;;2.05;1.67;;;;;;;;;;5072955;28;20544;-87
2023/09/14 11:37:02;;;;;;;2.60;2.13;;;;;;;;;;5055744;28;20441;-86
2023/09/14 11:39:28;;;;;;;6.43;2.33;;;;;;;;;;5064838;28;20558;-86
2023/09/14 11:45:15;;;;;;;1.90;1.80;;;;;;;;;;5062499;28;20055;-86
2023/09/14 11:47:41;;;;;;;4.13;2.25;;;;;;;;;;5071903;28;20438;-86
2023/09/14 11:50:08;;;;;;;2.95;2.25;;;;;;;;;;5062872;28;20035;-86
2023/09/14 11:52:34;;;;;;;4.90;2.83;;;;;;;;;;5067737;28;20024;-86
2023/09/14 11:55:00;;;;;;;3.20;1.90;;;;;;;;;;5056059;28;20090;-86
2023/09/14 11:57:27;;;;;;;3.00;2.00;;;;;;;;;;5073413;28;20020;-86
2023/09/14 11:59:52;;;;;;;2.10;1.90;;;;;;;;;;5047978;28;20059;-87
2023/09/14 12:02:18;;;;;;;2.95;2.10;;;;;;;;;;5074801;28;20043;-86
2023/09/14 12:04:44;;;;;;;3.20;1.92;;;;;;;;;;5062689;28;20456;-87
2023/09/14 12:07:10;;;;;;;4.35;2.30;;;;;;;;;;5045896;28;20055;-86
2023/09/14 12:09:40;;;;;;;4.53;2.20;;;;;;;;;;5052045;28;20472;-86
2023/09/14 12:12:09;;;;;;;4.10;2.17;;;;;;;;;;5051634;28;20051;-86
2023/09/14 12:14:40;;;;;;;2.67;1.67;;;;;;;;;;5071529;28;20024;-86
2023/09/14 12:17:25;;;;;;;2.30;2.10;;;;;;;;;;5060897;28;20066;-86
2023/09/14 12:19:55;;;;;;;5.60;2.35;;;;;;;;;;5070737;28;20360;-87
2023/09/14 12:22:21;;;;;;;3.30;2.03;;;;;;;;;;5060374;28;20024;-86
2023/09/14 12:24:47;;;;;;;1.75;1.48;;;;;;;;;;5072707;28;20024;-86
2023/09/14 12:27:13;;;;;;;3.85;2.30;;;;;;;;;;5057307;28;20035;-86
2023/09/14 12:29:41;;;;;;;2.85;1.63;;;;;;;;;;5056514;28;20021;-87
2023/09/14 12:32:07;;;;;;;2.05;1.52;;;;;;;;;;5071101;28;20107;-86
2023/09/14 12:34:33;;;;;;;2.50;1.50;;;;;;;;;;5065317;28;20056;-86
2023/09/14 12:37:00;;;;;;;2.05;1.58;;;;;;;;;;5056065;28;20058;-87
2023/09/14 12:39:25;;;;;;;3.10;1.98;;;;;;;;;;5054909;28;20031;-86
2023/09/14 12:41:52;;;;;;;2.38;1.90;;;;;;;;;;5058681;28;20024;-86
2023/09/14 12:44:19;;;;;;;2.03;1.55;;;;;;;;;;5055043;28;20044;-87
2023/09/14 12:46:45;;;;;;;4.32;1.90;;;;;;;;;;5069163;28;20070;-87
2023/09/14 12:49:13;;;;;;;2.70;1.52;;;;;;;;;;5068630;28;20025;-86
2023/09/14 12:51:48;;;;;;;4.75;1.55;;;;;;;;;;5052226;28;20119;-86
2023/09/14 12:54:16;;;;;;;2.85;1.50;;;;;;;;;;5050573;28;20071;-86
2023/09/14 12:56:43;;;;;;;7.30;2.17;;;;;;;;;;5050530;28;20023;-86
2023/09/14 12:59:08;;;;;;;2.08;1.55;;;;;;;;;;5044415;28;20074;-86
2023/09/14 13:01:38;;;;;;;1.95;1.70;;;;;;;;;;5049535;28;20028;-86
2023/09/14 13:04:03;;;;;;;4.85;1.77;;;;;;;;;;5049651;28;20111;-86
2023/09/14 13:06:32;;;;;;;5.32;1.95;;;;;;;;;;5053663;28;20045;-86
2023/09/14 13:08:58;;;;;;;4.50;1.73;;;;;;;;;;5063821;28;20079;-86
2023/09/14 13:11:31;;;;;;;1.90;1.60;;;;;;;;;;5069457;28;20684;-86
2023/09/14 13:13:56;;;;;;;2.55;1.58;;;;;;;;;;5044239;28;20033;-86
2023/09/14 13:16:22;;;;;;;2.42;1.60;;;;;;;;;;5045284;28;20050;-87
2023/09/14 13:18:48;;;;;;;1.45;1.35;;;;;;;;;;5058487;28;20230;-86
2023/09/14 13:21:14;;;;;;;2.60;1.95;;;;;;;;;;5065087;28;20396;-86
2023/09/14 13:23:39;;;;;;;1.60;1.50;;;;;;;;;;5063651;28;20472;-86
2023/09/14 13:26:05;;;;;;;2.35;2.05;;;;;;;;;;5068148;28;20021;-86
2023/09/14 13:28:30;;;;;;;2.80;1.75;;;;;;;;;;5065343;28;20029;-86
2023/09/14 13:30:55;;;;;;;3.65;2.22;;;;;;;;;;5052413;28;20032;-86
2023/09/14 13:33:21;;;;;;;2.65;2.10;;;;;;;;;;5054225;28;20032;-86
2023/09/14 13:35:47;;;;;;;2.78;1.92;;;;;;;;;;5071392;28;20030;-86
2023/09/14 13:38:12;;;;;;;2.70;1.73;;;;;;;;;;5045726;28;20024;-86
2023/09/14 13:40:38;;;;;;;3.17;1.77;;;;;;;;;;5070956;28;20020;-85
2023/09/14 13:43:07;;;;;;;3.90;1.73;;;;;;;;;;5065089;28;20119;-86
2023/09/14 13:45:32;;;;;;;3.00;1.80;;;;;;;;;;5044779;28;20025;-86
2023/09/14 13:47:58;;;;;;;3.00;2.08;;;;;;;;;;5071248;28;20021;-86
2023/09/14 13:50:23;;;;;;;3.38;2.05;;;;;;;;;;5068308;28;20390;-86
2023/09/14 13:52:49;;;;;;;1.92;1.60;;;;;;;;;;5048374;28;20360;-86
2023/09/14 13:55:15;;;;;;;1.48;1.38;;;;;;;;;;5048923;28;20021;-86
2023/09/14 13:57:41;;;;;;;1.58;1.30;;;;;;;;;;5062487;28;20406;-86
2023/09/14 14:00:10;;;;;;;2.08;1.50;;;;;;;;;;5044248;28;20043;-86
2023/09/14 14:02:45;;;;;;;1.60;1.50;;;;;;;;;;5065907;28;20028;-86
2023/09/14 14:05:11;;;;;;;2.35;1.80;;;;;;;;;;5053159;28;20020;-86
2023/09/14 14:07:36;;;;;;;2.10;1.90;;;;;;;;;;5065777;28;20020;-85
2023/09/14 14:10:05;;;;;;;3.28;1.90;;;;;;;;;;5067670;28;20021;-86
2023/09/14 14:12:33;;;;;;;2.67;1.73;;;;;;;;;;5070936;28;20029;-87
2023/09/14 14:14:58;;;;;;;2.75;1.77;;;;;;;;;;5061345;28;20040;-86
2023/09/14 14:17:24;;;;;;;2.90;1.85;;;;;;;;;;5053357;28;20032;-86
2023/09/14 14:19:49;;;;;;;2.13;1.70;;;;;;;;;;5053657;28;20110;-86
2023/09/14 14:22:15;;;;;;;2.42;1.55;;;;;;;;;;5063903;28;20017;-86
2023/09/14 14:24:40;;;;;;;1.77;1.60;;;;;;;;;;5062269;28;20017;-86
2023/09/14 14:27:06;;;;;;;2.30;1.52;;;;;;;;;;5069515;28;20016;-86
2023/09/14 14:29:31;;;;;;;1.75;1.60;;;;;;;;;;5054416;28;20024;-86
2023/09/14 14:31:57;;;;;;;1.75;1.55;;;;;;;;;;5050405;28;20031;-86
2023/09/14 14:34:22;;;;;;;1.98;1.77;;;;;;;;;;5064908;28;20025;-87
2023/09/14 14:36:48;;;;;;;3.15;1.40;;;;;;;;;;5068342;28;20499;-86
2023/09/14 14:39:15;;;;;;;1.95;1.27;;;;;;;;;;5069297;28;20036;-86
2023/09/14 14:41:41;;;;;;;1.42;1.30;;;;;;;;;;5064636;28;20028;-86
2023/09/14 14:44:07;;;;;;;2.60;1.48;;;;;;;;;;5062954;28;20033;-86
2023/09/14 14:46:32;;;;;;;1.90;1.40;;;;;;;;;;5059850;28;20076;-86
2023/09/14 14:48:57;;;;;;;1.45;1.35;;;;;;;;;;5058926;28;20021;-86
2023/09/14 14:51:23;;;;;;;1.40;1.33;;;;;;;;;;5046798;28;20326;-86
2023/09/14 14:53:48;;;;;;;1.55;1.33;;;;;;;;;;5065210;28;20043;-86
2023/09/14 14:56:14;;;;;;;1.55;1.33;;;;;;;;;;5067391;28;20028;-86
2023/09/14 14:58:40;;;;;;;1.52;1.42;;;;;;;;;;5065794;28;20016;-86
2023/09/14 15:01:10;;;;;;;1.58;1.40;;;;;;;;;;5066638;28;20435;-86
2023/09/14 15:03:40;;;;;;;2.90;1.65;;;;;;;;;;5056328;28;20055;-86
2023/09/14 15:06:08;;;;;;;1.45;1.33;;;;;;;;;;5057015;28;20078;-86
2023/09/14 15:08:43;;;;;;;1.25;1.08;;;;;;;;;;5062604;28;20086;-86
2023/09/14 15:11:09;;;;;;;1.30;1.20;;;;;;;;;;5048542;28;20480;-86
2023/09/14 15:13:35;;;;;;;1.85;1.17;;;;;;;;;;5069883;28;20104;-86
2023/09/14 15:16:01;;;;;;;1.60;1.20;;;;;;;;;;5074334;28;20056;-86
2023/09/14 15:18:29;;;;;;;5.53;1.52;;;;;;;;;;5069734;28;20039;-86
2023/09/14 15:21:00;;;;;;;2.58;1.38;;;;;;;;;;5066363;28;20131;-86
2023/09/14 15:23:26;;;;;;;;;;;;;;;;;;5063380;28;20048;-86
2023/09/14 15:25:54;;;;;;;2.38;1.60;;;;;;;;;;5058864;28;19912;-86
2023/09/14 15:28:21;;;;;;;1.45;1.35;;;;;;;;;;5074451;28;20028;-86
2023/09/14 15:30:47;;;;;;;2.50;1.50;;;;;;;;;;5060676;28;20103;-85
2023/09/14 15:33:12;;;;;;;2.10;1.25;;;;;;;;;;5070321;28;20304;-86